sensor_id;sensor_type;location;lat;lon;timestamp;P1;durP1;ratioP1;P2;durP2;ratioP2
24259;SDS011;12384;48.112;18.418;2023-12-20T00:01:26;20.23;;;18.93;;
24259;SDS011;12384;48.112;18.418;2023-12-20T00:03:55;20.20;;;18.90;;
24259;SDS011;12384;48.112;18.418;2023-12-20T00:06:26;20.00;;;18.70;;
24259;SDS011;12384;48.112;18.418;2023-12-20T00:08:55;20.27;;;18.80;;
24259;SDS011;12384;48.112;18.418;2023-12-20T00:11:27;21.03;;;19.63;;
24259;SDS011;12384;48.112;18.418;2023-12-20T00:13:57;20.23;;;18.93;;
24259;SDS011;12384;48.112;18.418;2023-12-20T00:16:25;21.20;;;19.70;;
24259;SDS011;12384;48.112;18.418;2023-12-20T00:18:54;20.70;;;19.30;;
24259;SDS011;12384;48.112;18.418;2023-12-20T00:21:23;20.60;;;19.20;;
24259;SDS011;12384;48.112;18.418;2023-12-20T00:23:51;20.07;;;18.77;;
24259;SDS011;12384;48.112;18.418;2023-12-20T00:26:20;20.37;;;19.00;;
24259;SDS011;12384;48.112;18.418;2023-12-20T00:28:48;20.30;;;18.90;;
24259;SDS011;12384;48.112;18.418;2023-12-20T00:31:18;20.00;;;18.60;;
24259;SDS011;12384;48.112;18.418;2023-12-20T00:33:47;20.00;;;18.70;;
24259;SDS011;12384;48.112;18.418;2023-12-20T00:36:15;19.77;;;18.47;;
24259;SDS011;12384;48.112;18.418;2023-12-20T00:38:44;20.20;;;18.80;;
24259;SDS011;12384;48.112;18.418;2023-12-20T00:41:13;19.53;;;18.20;;
24259;SDS011;12384;48.112;18.418;2023-12-20T00:43:41;19.17;;;17.87;;
24259;SDS011;12384;48.112;18.418;2023-12-20T00:46:11;20.07;;;18.60;;
24259;SDS011;12384;48.112;18.418;2023-12-20T00:48:40;19.63;;;18.23;;
24259;SDS011;12384;48.112;18.418;2023-12-20T00:51:12;19.50;;;18.20;;
24259;SDS011;12384;48.112;18.418;2023-12-20T00:53:40;19.50;;;18.20;;
24259;SDS011;12384;48.112;18.418;2023-12-20T00:56:10;20.43;;;19.03;;
24259;SDS011;12384;48.112;18.418;2023-12-20T00:58:38;20.73;;;19.23;;
24259;SDS011;12384;48.112;18.418;2023-12-20T01:01:07;19.83;;;18.53;;
24259;SDS011;12384;48.112;18.418;2023-12-20T01:03:35;20.27;;;18.97;;
24259;SDS011;12384;48.112;18.418;2023-12-20T01:06:06;20.93;;;19.23;;
24259;SDS011;12384;48.112;18.418;2023-12-20T01:08:34;20.70;;;19.20;;
24259;SDS011;12384;48.112;18.418;2023-12-20T01:11:03;19.67;;;18.37;;
24259;SDS011;12384;48.112;18.418;2023-12-20T01:13:32;19.57;;;18.27;;
24259;SDS011;12384;48.112;18.418;2023-12-20T01:16:01;19.90;;;18.50;;
24259;SDS011;12384;48.112;18.418;2023-12-20T01:18:29;20.27;;;18.87;;
24259;SDS011;12384;48.112;18.418;2023-12-20T01:21:01;20.70;;;19.30;;
24259;SDS011;12384;48.112;18.418;2023-12-20T01:23:31;20.00;;;18.70;;
24259;SDS011;12384;48.112;18.418;2023-12-20T01:26:00;20.90;;;18.93;;
24259;SDS011;12384;48.112;18.418;2023-12-20T01:28:29;20.10;;;18.70;;
24259;SDS011;12384;48.112;18.418;2023-12-20T01:30:57;19.90;;;18.50;;
24259;SDS011;12384;48.112;18.418;2023-12-20T01:33:26;20.87;;;19.47;;
24259;SDS011;12384;48.112;18.418;2023-12-20T01:35:54;19.93;;;18.63;;
24259;SDS011;12384;48.112;18.418;2023-12-20T01:38:23;20.13;;;18.80;;
24259;SDS011;12384;48.112;18.418;2023-12-20T01:40:53;20.40;;;18.80;;
24259;SDS011;12384;48.112;18.418;2023-12-20T01:43:21;20.20;;;18.80;;
24259;SDS011;12384;48.112;18.418;2023-12-20T01:45:53;20.23;;;18.83;;
24259;SDS011;12384;48.112;18.418;2023-12-20T01:48:24;20.73;;;19.33;;
24259;SDS011;12384;48.112;18.418;2023-12-20T01:50:53;20.97;;;19.57;;
24259;SDS011;12384;48.112;18.418;2023-12-20T01:53:23;20.90;;;19.40;;
24259;SDS011;12384;48.112;18.418;2023-12-20T01:55:57;19.33;;;18.03;;
24259;SDS011;12384;48.112;18.418;2023-12-20T01:58:27;20.43;;;19.07;;
24259;SDS011;12384;48.112;18.418;2023-12-20T02:00:56;21.00;;;19.60;;
24259;SDS011;12384;48.112;18.418;2023-12-20T02:03:26;20.40;;;19.00;;
24259;SDS011;12384;48.112;18.418;2023-12-20T02:05:55;20.60;;;19.00;;
24259;SDS011;12384;48.112;18.418;2023-12-20T02:08:24;19.90;;;18.60;;
24259;SDS011;12384;48.112;18.418;2023-12-20T02:10:52;21.97;;;20.47;;
24259;SDS011;12384;48.112;18.418;2023-12-20T02:13:23;22.23;;;20.57;;
24259;SDS011;12384;48.112;18.418;2023-12-20T02:15:53;20.40;;;19.07;;
24259;SDS011;12384;48.112;18.418;2023-12-20T02:18:22;22.10;;;20.60;;
24259;SDS011;12384;48.112;18.418;2023-12-20T02:21:11;21.53;;;20.03;;
24259;SDS011;12384;48.112;18.418;2023-12-20T02:23:41;19.80;;;18.50;;
24259;SDS011;12384;48.112;18.418;2023-12-20T02:26:10;20.30;;;19.00;;
24259;SDS011;12384;48.112;18.418;2023-12-20T02:28:40;21.00;;;19.60;;
24259;SDS011;12384;48.112;18.418;2023-12-20T02:31:09;20.67;;;19.23;;
24259;SDS011;12384;48.112;18.418;2023-12-20T02:33:37;20.47;;;19.17;;
24259;SDS011;12384;48.112;18.418;2023-12-20T02:36:06;20.07;;;18.77;;
24259;SDS011;12384;48.112;18.418;2023-12-20T02:38:34;19.90;;;18.60;;
24259;SDS011;12384;48.112;18.418;2023-12-20T02:41:04;20.27;;;18.97;;
24259;SDS011;12384;48.112;18.418;2023-12-20T02:43:33;21.43;;;20.03;;
24259;SDS011;12384;48.112;18.418;2023-12-20T02:46:01;21.00;;;19.53;;
24259;SDS011;12384;48.112;18.418;2023-12-20T02:48:30;20.10;;;18.80;;
24259;SDS011;12384;48.112;18.418;2023-12-20T02:50:59;19.77;;;18.47;;
24259;SDS011;12384;48.112;18.418;2023-12-20T02:53:27;19.90;;;18.60;;
24259;SDS011;12384;48.112;18.418;2023-12-20T02:55:56;19.37;;;18.07;;
24259;SDS011;12384;48.112;18.418;2023-12-20T02:58:26;20.03;;;18.73;;
24259;SDS011;12384;48.112;18.418;2023-12-20T03:00:54;19.60;;;18.40;;
24259;SDS011;12384;48.112;18.418;2023-12-20T03:03:23;19.70;;;18.40;;
24259;SDS011;12384;48.112;18.418;2023-12-20T03:05:52;19.37;;;18.13;;
24259;SDS011;12384;48.112;18.418;2023-12-20T03:08:21;19.60;;;18.40;;
24259;SDS011;12384;48.112;18.418;2023-12-20T03:10:49;19.17;;;17.97;;
24259;SDS011;12384;48.112;18.418;2023-12-20T03:13:18;20.00;;;18.60;;
24259;SDS011;12384;48.112;18.418;2023-12-20T03:15:48;19.10;;;17.90;;
24259;SDS011;12384;48.112;18.418;2023-12-20T03:18:16;20.47;;;19.17;;
24259;SDS011;12384;48.112;18.418;2023-12-20T03:20:45;19.33;;;18.23;;
24259;SDS011;12384;48.112;18.418;2023-12-20T03:23:16;18.70;;;17.60;;
24259;SDS011;12384;48.112;18.418;2023-12-20T03:25:45;19.50;;;18.40;;
24259;SDS011;12384;48.112;18.418;2023-12-20T03:28:14;18.47;;;17.37;;
24259;SDS011;12384;48.112;18.418;2023-12-20T03:30:43;20.03;;;18.73;;
24259;SDS011;12384;48.112;18.418;2023-12-20T03:33:13;19.43;;;18.20;;
24259;SDS011;12384;48.112;18.418;2023-12-20T03:35:41;19.10;;;17.90;;
24259;SDS011;12384;48.112;18.418;2023-12-20T03:38:10;19.10;;;18.00;;
24259;SDS011;12384;48.112;18.418;2023-12-20T03:40:39;19.87;;;18.57;;
24259;SDS011;12384;48.112;18.418;2023-12-20T03:43:07;19.63;;;18.23;;
24259;SDS011;12384;48.112;18.418;2023-12-20T03:45:36;18.90;;;17.70;;
24259;SDS011;12384;48.112;18.418;2023-12-20T03:48:05;18.83;;;17.63;;
24259;SDS011;12384;48.112;18.418;2023-12-20T03:50:35;19.80;;;18.40;;
24259;SDS011;12384;48.112;18.418;2023-12-20T03:53:03;19.33;;;18.03;;
24259;SDS011;12384;48.112;18.418;2023-12-20T03:55:32;19.10;;;17.90;;
24259;SDS011;12384;48.112;18.418;2023-12-20T03:58:00;19.97;;;18.57;;
24259;SDS011;12384;48.112;18.418;2023-12-20T04:00:29;20.23;;;18.57;;
24259;SDS011;12384;48.112;18.418;2023-12-20T04:02:58;19.10;;;17.90;;
24259;SDS011;12384;48.112;18.418;2023-12-20T04:05:26;19.70;;;18.50;;
24259;SDS011;12384;48.112;18.418;2023-12-20T04:07:56;18.87;;;17.67;;
24259;SDS011;12384;48.112;18.418;2023-12-20T04:10:24;19.40;;;18.20;;
24259;SDS011;12384;48.112;18.418;2023-12-20T04:12:53;19.30;;;18.10;;
24259;SDS011;12384;48.112;18.418;2023-12-20T04:15:22;18.70;;;17.60;;
24259;SDS011;12384;48.112;18.418;2023-12-20T04:17:50;19.50;;;18.30;;
24259;SDS011;12384;48.112;18.418;2023-12-20T04:20:19;19.37;;;18.17;;
24259;SDS011;12384;48.112;18.418;2023-12-20T04:22:47;19.77;;;18.47;;
24259;SDS011;12384;48.112;18.418;2023-12-20T04:25:17;19.33;;;18.03;;
24259;SDS011;12384;48.112;18.418;2023-12-20T04:27:46;18.97;;;17.77;;
24259;SDS011;12384;48.112;18.418;2023-12-20T04:30:15;20.00;;;18.70;;
24259;SDS011;12384;48.112;18.418;2023-12-20T04:32:43;19.30;;;18.10;;
24259;SDS011;12384;48.112;18.418;2023-12-20T04:35:12;19.67;;;18.47;;
24259;SDS011;12384;48.112;18.418;2023-12-20T04:37:41;19.30;;;18.10;;
24259;SDS011;12384;48.112;18.418;2023-12-20T04:40:10;19.20;;;18.00;;
24259;SDS011;12384;48.112;18.418;2023-12-20T04:42:40;20.47;;;19.00;;
24259;SDS011;12384;48.112;18.418;2023-12-20T04:45:08;19.90;;;18.60;;
24259;SDS011;12384;48.112;18.418;2023-12-20T04:47:39;19.50;;;18.30;;
24259;SDS011;12384;48.112;18.418;2023-12-20T04:50:10;19.70;;;18.40;;
24259;SDS011;12384;48.112;18.418;2023-12-20T04:52:40;20.20;;;19.00;;
24259;SDS011;12384;48.112;18.418;2023-12-20T04:55:09;21.13;;;19.63;;
24259;SDS011;12384;48.112;18.418;2023-12-20T04:57:38;21.00;;;19.60;;
24259;SDS011;12384;48.112;18.418;2023-12-20T05:00:08;20.70;;;19.40;;
24259;SDS011;12384;48.112;18.418;2023-12-20T05:02:37;20.70;;;19.40;;
24259;SDS011;12384;48.112;18.418;2023-12-20T05:05:05;19.90;;;18.70;;
24259;SDS011;12384;48.112;18.418;2023-12-20T05:07:34;20.50;;;19.20;;
24259;SDS011;12384;48.112;18.418;2023-12-20T05:10:03;19.83;;;18.53;;
24259;SDS011;12384;48.112;18.418;2023-12-20T05:12:32;20.37;;;19.17;;
24259;SDS011;12384;48.112;18.418;2023-12-20T05:15:02;20.77;;;19.47;;
24259;SDS011;12384;48.112;18.418;2023-12-20T05:17:32;20.97;;;19.60;;
24259;SDS011;12384;48.112;18.418;2023-12-20T05:20:00;21.07;;;19.67;;
24259;SDS011;12384;48.112;18.418;2023-12-20T05:22:29;20.40;;;19.10;;
24259;SDS011;12384;48.112;18.418;2023-12-20T05:24:57;20.00;;;18.70;;
24259;SDS011;12384;48.112;18.418;2023-12-20T05:27:26;19.90;;;18.60;;
24259;SDS011;12384;48.112;18.418;2023-12-20T05:29:54;20.33;;;19.03;;
24259;SDS011;12384;48.112;18.418;2023-12-20T05:32:25;20.23;;;18.93;;
24259;SDS011;12384;48.112;18.418;2023-12-20T05:34:54;20.90;;;19.60;;
24259;SDS011;12384;48.112;18.418;2023-12-20T05:37:23;21.33;;;19.93;;
24259;SDS011;12384;48.112;18.418;2023-12-20T05:39:52;21.50;;;20.20;;
24259;SDS011;12384;48.112;18.418;2023-12-20T05:42:21;20.70;;;19.40;;
24259;SDS011;12384;48.112;18.418;2023-12-20T05:44:49;20.33;;;19.13;;
24259;SDS011;12384;48.112;18.418;2023-12-20T05:47:21;19.80;;;18.50;;
24259;SDS011;12384;48.112;18.418;2023-12-20T05:49:50;19.57;;;18.37;;
24259;SDS011;12384;48.112;18.418;2023-12-20T05:52:19;20.00;;;18.70;;
24259;SDS011;12384;48.112;18.418;2023-12-20T05:54:48;20.40;;;19.10;;
24259;SDS011;12384;48.112;18.418;2023-12-20T05:57:17;20.40;;;19.10;;
24259;SDS011;12384;48.112;18.418;2023-12-20T05:59:45;20.10;;;18.80;;
24259;SDS011;12384;48.112;18.418;2023-12-20T06:02:14;20.20;;;18.90;;
24259;SDS011;12384;48.112;18.418;2023-12-20T06:04:42;20.50;;;19.20;;
24259;SDS011;12384;48.112;18.418;2023-12-20T06:07:12;20.43;;;19.13;;
24259;SDS011;12384;48.112;18.418;2023-12-20T06:09:41;21.13;;;19.83;;
24259;SDS011;12384;48.112;18.418;2023-12-20T06:12:11;21.63;;;20.23;;
24259;SDS011;12384;48.112;18.418;2023-12-20T06:14:43;22.60;;;21.00;;
24259;SDS011;12384;48.112;18.418;2023-12-20T06:17:11;22.33;;;20.83;;
24259;SDS011;12384;48.112;18.418;2023-12-20T06:19:40;22.33;;;20.83;;
24259;SDS011;12384;48.112;18.418;2023-12-20T06:22:13;22.40;;;20.93;;
24259;SDS011;12384;48.112;18.418;2023-12-20T06:24:41;21.90;;;20.50;;
24259;SDS011;12384;48.112;18.418;2023-12-20T06:27:10;22.70;;;21.17;;
24259;SDS011;12384;48.112;18.418;2023-12-20T06:29:39;21.87;;;20.47;;
24259;SDS011;12384;48.112;18.418;2023-12-20T06:32:09;21.20;;;19.90;;
24259;SDS011;12384;48.112;18.418;2023-12-20T06:34:38;22.83;;;21.20;;
24259;SDS011;12384;48.112;18.418;2023-12-20T06:37:06;22.20;;;20.70;;
24259;SDS011;12384;48.112;18.418;2023-12-20T06:39:36;21.80;;;20.30;;
24259;SDS011;12384;48.112;18.418;2023-12-20T06:42:05;21.20;;;19.90;;
24259;SDS011;12384;48.112;18.418;2023-12-20T06:44:34;21.00;;;19.70;;
24259;SDS011;12384;48.112;18.418;2023-12-20T06:47:03;20.63;;;19.33;;
24259;SDS011;12384;48.112;18.418;2023-12-20T06:49:32;20.83;;;19.43;;
24259;SDS011;12384;48.112;18.418;2023-12-20T06:52:00;21.57;;;20.17;;
24259;SDS011;12384;48.112;18.418;2023-12-20T06:54:29;20.53;;;19.23;;
24259;SDS011;12384;48.112;18.418;2023-12-20T06:56:59;20.60;;;19.30;;
24259;SDS011;12384;48.112;18.418;2023-12-20T06:59:28;20.97;;;19.47;;
24259;SDS011;12384;48.112;18.418;2023-12-20T07:01:57;21.53;;;20.13;;
24259;SDS011;12384;48.112;18.418;2023-12-20T07:04:27;21.07;;;19.77;;
24259;SDS011;12384;48.112;18.418;2023-12-20T07:06:56;20.00;;;18.77;;
24259;SDS011;12384;48.112;18.418;2023-12-20T07:09:27;20.77;;;19.47;;
24259;SDS011;12384;48.112;18.418;2023-12-20T07:11:55;21.20;;;19.80;;
24259;SDS011;12384;48.112;18.418;2023-12-20T07:14:25;20.90;;;19.50;;
24259;SDS011;12384;48.112;18.418;2023-12-20T07:16:54;20.70;;;19.37;;
24259;SDS011;12384;48.112;18.418;2023-12-20T07:19:23;20.53;;;19.20;;
24259;SDS011;12384;48.112;18.418;2023-12-20T07:21:52;21.60;;;20.30;;
24259;SDS011;12384;48.112;18.418;2023-12-20T07:24:20;21.87;;;20.47;;
24259;SDS011;12384;48.112;18.418;2023-12-20T07:26:49;21.63;;;20.33;;
24259;SDS011;12384;48.112;18.418;2023-12-20T07:29:18;20.80;;;19.50;;
24259;SDS011;12384;48.112;18.418;2023-12-20T07:31:48;20.50;;;19.20;;
24259;SDS011;12384;48.112;18.418;2023-12-20T07:34:18;20.50;;;19.20;;
24259;SDS011;12384;48.112;18.418;2023-12-20T07:36:47;20.80;;;19.40;;
24259;SDS011;12384;48.112;18.418;2023-12-20T07:39:16;22.00;;;20.40;;
24259;SDS011;12384;48.112;18.418;2023-12-20T07:41:45;21.90;;;20.50;;
24259;SDS011;12384;48.112;18.418;2023-12-20T07:44:14;20.97;;;19.57;;
24259;SDS011;12384;48.112;18.418;2023-12-20T07:46:42;21.73;;;20.33;;
24259;SDS011;12384;48.112;18.418;2023-12-20T07:49:12;21.70;;;20.30;;
24259;SDS011;12384;48.112;18.418;2023-12-20T07:51:41;21.33;;;19.93;;
24259;SDS011;12384;48.112;18.418;2023-12-20T07:54:09;22.40;;;20.87;;
24259;SDS011;12384;48.112;18.418;2023-12-20T07:56:38;20.63;;;19.27;;
24259;SDS011;12384;48.112;18.418;2023-12-20T07:59:07;19.37;;;18.07;;
24259;SDS011;12384;48.112;18.418;2023-12-20T08:01:48;20.77;;;19.37;;
24259;SDS011;12384;48.112;18.418;2023-12-20T08:04:18;21.80;;;20.00;;
24259;SDS011;12384;48.112;18.418;2023-12-20T08:06:47;21.00;;;19.53;;
24259;SDS011;12384;48.112;18.418;2023-12-20T08:09:16;22.10;;;20.60;;
24259;SDS011;12384;48.112;18.418;2023-12-20T08:11:44;22.67;;;21.17;;
24259;SDS011;12384;48.112;18.418;2023-12-20T08:14:13;22.00;;;20.50;;
24259;SDS011;12384;48.112;18.418;2023-12-20T08:16:45;23.03;;;21.33;;
24259;SDS011;12384;48.112;18.418;2023-12-20T08:19:13;22.33;;;20.83;;
24259;SDS011;12384;48.112;18.418;2023-12-20T08:21:43;22.13;;;20.63;;
24259;SDS011;12384;48.112;18.418;2023-12-20T08:24:12;22.23;;;20.63;;
24259;SDS011;12384;48.112;18.418;2023-12-20T08:26:40;21.87;;;20.37;;
24259;SDS011;12384;48.112;18.418;2023-12-20T08:29:09;21.60;;;20.10;;
24259;SDS011;12384;48.112;18.418;2023-12-20T08:31:37;21.90;;;20.30;;
24259;SDS011;12384;48.112;18.418;2023-12-20T08:34:06;22.53;;;20.83;;
24259;SDS011;12384;48.112;18.418;2023-12-20T08:36:35;22.00;;;20.40;;
24259;SDS011;12384;48.112;18.418;2023-12-20T08:39:05;21.30;;;19.90;;
24259;SDS011;12384;48.112;18.418;2023-12-20T08:41:35;21.80;;;20.23;;
24259;SDS011;12384;48.112;18.418;2023-12-20T08:44:03;22.63;;;21.13;;
24259;SDS011;12384;48.112;18.418;2023-12-20T08:46:32;21.70;;;20.20;;
24259;SDS011;12384;48.112;18.418;2023-12-20T08:49:01;21.53;;;19.93;;
24259;SDS011;12384;48.112;18.418;2023-12-20T08:51:29;22.30;;;20.60;;
24259;SDS011;12384;48.112;18.418;2023-12-20T08:53:58;21.40;;;19.90;;
24259;SDS011;12384;48.112;18.418;2023-12-20T08:56:28;22.43;;;20.83;;
24259;SDS011;12384;48.112;18.418;2023-12-20T08:58:56;21.97;;;20.37;;
24259;SDS011;12384;48.112;18.418;2023-12-20T09:01:25;22.00;;;20.40;;
24259;SDS011;12384;48.112;18.418;2023-12-20T09:03:54;21.90;;;20.30;;
24259;SDS011;12384;48.112;18.418;2023-12-20T09:06:22;21.27;;;19.77;;
24259;SDS011;12384;48.112;18.418;2023-12-20T09:08:51;21.23;;;19.80;;
24259;SDS011;12384;48.112;18.418;2023-12-20T09:11:20;22.53;;;20.93;;
24259;SDS011;12384;48.112;18.418;2023-12-20T09:13:50;22.53;;;20.93;;
24259;SDS011;12384;48.112;18.418;2023-12-20T09:16:18;21.80;;;20.30;;
24259;SDS011;12384;48.112;18.418;2023-12-20T09:18:47;21.90;;;20.30;;
24259;SDS011;12384;48.112;18.418;2023-12-20T09:21:15;22.00;;;20.40;;
24259;SDS011;12384;48.112;18.418;2023-12-20T09:23:44;22.00;;;20.50;;
24259;SDS011;12384;48.112;18.418;2023-12-20T09:26:12;21.50;;;20.00;;
24259;SDS011;12384;48.112;18.418;2023-12-20T09:28:41;21.30;;;19.87;;
24259;SDS011;12384;48.112;18.418;2023-12-20T09:31:11;22.33;;;20.77;;
24259;SDS011;12384;48.112;18.418;2023-12-20T09:33:40;32.57;;;30.27;;
24259;SDS011;12384;48.112;18.418;2023-12-20T09:36:08;22.07;;;20.57;;
24259;SDS011;12384;48.112;18.418;2023-12-20T09:38:37;21.00;;;19.60;;
24259;SDS011;12384;48.112;18.418;2023-12-20T09:41:05;20.73;;;19.43;;
24259;SDS011;12384;48.112;18.418;2023-12-20T09:43:35;21.53;;;20.10;;
24259;SDS011;12384;48.112;18.418;2023-12-20T09:46:06;22.30;;;20.60;;
24259;SDS011;12384;48.112;18.418;2023-12-20T09:48:36;20.73;;;19.33;;
24259;SDS011;12384;48.112;18.418;2023-12-20T09:51:06;21.20;;;19.80;;
24259;SDS011;12384;48.112;18.418;2023-12-20T09:53:35;20.57;;;19.17;;
24259;SDS011;12384;48.112;18.418;2023-12-20T09:56:07;21.00;;;19.60;;
24259;SDS011;12384;48.112;18.418;2023-12-20T09:58:36;19.83;;;18.63;;
24259;SDS011;12384;48.112;18.418;2023-12-20T10:01:06;20.53;;;19.23;;
24259;SDS011;12384;48.112;18.418;2023-12-20T10:03:37;19.80;;;18.50;;
24259;SDS011;12384;48.112;18.418;2023-12-20T10:06:09;19.40;;;18.30;;
24259;SDS011;12384;48.112;18.418;2023-12-20T10:08:38;20.40;;;19.10;;
24259;SDS011;12384;48.112;18.418;2023-12-20T10:11:07;20.40;;;19.10;;
24259;SDS011;12384;48.112;18.418;2023-12-20T10:13:38;19.80;;;18.60;;
24259;SDS011;12384;48.112;18.418;2023-12-20T10:16:07;20.10;;;18.80;;
24259;SDS011;12384;48.112;18.418;2023-12-20T10:18:37;19.20;;;18.10;;
24259;SDS011;12384;48.112;18.418;2023-12-20T10:21:07;19.30;;;18.20;;
24259;SDS011;12384;48.112;18.418;2023-12-20T10:23:37;18.07;;;17.03;;
24259;SDS011;12384;48.112;18.418;2023-12-20T10:26:07;18.03;;;17.03;;
24259;SDS011;12384;48.112;18.418;2023-12-20T10:28:36;16.43;;;15.53;;
24259;SDS011;12384;48.112;18.418;2023-12-20T10:31:05;15.57;;;14.77;;
24259;SDS011;12384;48.112;18.418;2023-12-20T10:33:34;14.93;;;13.90;;
24259;SDS011;12384;48.112;18.418;2023-12-20T10:36:05;13.10;;;12.40;;
24259;SDS011;12384;48.112;18.418;2023-12-20T10:38:34;11.93;;;11.33;;
24259;SDS011;12384;48.112;18.418;2023-12-20T10:41:05;12.80;;;12.10;;
24259;SDS011;12384;48.112;18.418;2023-12-20T10:43:36;13.40;;;12.70;;
24259;SDS011;12384;48.112;18.418;2023-12-20T10:46:06;12.30;;;11.67;;
24259;SDS011;12384;48.112;18.418;2023-12-20T10:48:35;12.50;;;11.90;;
24259;SDS011;12384;48.112;18.418;2023-12-20T10:51:08;11.80;;;11.20;;
24259;SDS011;12384;48.112;18.418;2023-12-20T10:53:38;13.97;;;13.07;;
24259;SDS011;12384;48.112;18.418;2023-12-20T10:56:08;13.30;;;12.50;;
24259;SDS011;12384;48.112;18.418;2023-12-20T10:58:40;15.07;;;13.67;;
24259;SDS011;12384;48.112;18.418;2023-12-20T11:01:11;13.27;;;12.50;;
24259;SDS011;12384;48.112;18.418;2023-12-20T11:03:43;14.90;;;13.80;;
24259;SDS011;12384;48.112;18.418;2023-12-20T11:06:21;15.70;;;14.70;;
24259;SDS011;12384;48.112;18.418;2023-12-20T11:09:01;14.50;;;13.70;;
24259;SDS011;12384;48.112;18.418;2023-12-20T11:11:47;14.57;;;13.77;;
24259;SDS011;12384;48.112;18.418;2023-12-20T11:14:29;16.13;;;14.97;;
24259;SDS011;12384;48.112;18.418;2023-12-20T11:17:06;16.53;;;15.43;;
24259;SDS011;12384;48.112;18.418;2023-12-20T11:19:43;15.90;;;15.00;;
24259;SDS011;12384;48.112;18.418;2023-12-20T11:22:34;16.37;;;15.47;;
24259;SDS011;12384;48.112;18.418;2023-12-20T11:25:07;16.50;;;15.40;;
24259;SDS011;12384;48.112;18.418;2023-12-20T11:27:40;17.23;;;15.77;;
24259;SDS011;12384;48.112;18.418;2023-12-20T11:30:15;15.23;;;14.43;;
24259;SDS011;12384;48.112;18.418;2023-12-20T11:32:44;14.93;;;14.03;;
24259;SDS011;12384;48.112;18.418;2023-12-20T11:35:18;15.07;;;14.20;;
24259;SDS011;12384;48.112;18.418;2023-12-20T11:37:49;15.57;;;14.50;;
24259;SDS011;12384;48.112;18.418;2023-12-20T11:40:19;15.73;;;14.83;;
24259;SDS011;12384;48.112;18.418;2023-12-20T11:42:49;15.37;;;14.37;;
24259;SDS011;12384;48.112;18.418;2023-12-20T11:45:20;16.20;;;15.30;;
24259;SDS011;12384;48.112;18.418;2023-12-20T11:47:55;16.20;;;15.30;;
24259;SDS011;12384;48.112;18.418;2023-12-20T11:50:25;15.40;;;14.50;;
24259;SDS011;12384;48.112;18.418;2023-12-20T11:52:56;16.03;;;15.13;;
24259;SDS011;12384;48.112;18.418;2023-12-20T11:55:25;16.30;;;15.30;;
24259;SDS011;12384;48.112;18.418;2023-12-20T11:57:54;16.60;;;15.70;;
24259;SDS011;12384;48.112;18.418;2023-12-20T12:00:22;15.83;;;14.93;;
24259;SDS011;12384;48.112;18.418;2023-12-20T12:02:56;16.70;;;15.80;;
24259;SDS011;12384;48.112;18.418;2023-12-20T12:05:25;16.90;;;15.90;;
24259;SDS011;12384;48.112;18.418;2023-12-20T12:07:55;16.63;;;15.73;;
24259;SDS011;12384;48.112;18.418;2023-12-20T12:10:24;16.70;;;15.80;;
24259;SDS011;12384;48.112;18.418;2023-12-20T12:12:52;17.93;;;16.93;;
24259;SDS011;12384;48.112;18.418;2023-12-20T12:15:21;17.43;;;16.33;;
24259;SDS011;12384;48.112;18.418;2023-12-20T12:17:53;18.47;;;17.27;;
24259;SDS011;12384;48.112;18.418;2023-12-20T12:20:23;17.60;;;16.60;;
24259;SDS011;12384;48.112;18.418;2023-12-20T12:22:59;18.13;;;17.13;;
24259;SDS011;12384;48.112;18.418;2023-12-20T12:25:29;18.10;;;17.10;;
24259;SDS011;12384;48.112;18.418;2023-12-20T12:27:59;18.27;;;17.17;;
24259;SDS011;12384;48.112;18.418;2023-12-20T12:30:28;18.17;;;16.83;;
24259;SDS011;12384;48.112;18.418;2023-12-20T12:33:04;17.70;;;16.60;;
24259;SDS011;12384;48.112;18.418;2023-12-20T12:35:34;17.77;;;16.77;;
24259;SDS011;12384;48.112;18.418;2023-12-20T12:38:04;19.27;;;18.07;;
24259;SDS011;12384;48.112;18.418;2023-12-20T12:40:35;18.10;;;17.10;;
24259;SDS011;12384;48.112;18.418;2023-12-20T12:43:04;18.87;;;17.77;;
24259;SDS011;12384;48.112;18.418;2023-12-20T12:45:33;17.83;;;16.63;;
24259;SDS011;12384;48.112;18.418;2023-12-20T12:48:02;17.00;;;16.00;;
24259;SDS011;12384;48.112;18.418;2023-12-20T12:50:32;18.37;;;17.20;;
24259;SDS011;12384;48.112;18.418;2023-12-20T12:53:00;16.87;;;15.87;;
24259;SDS011;12384;48.112;18.418;2023-12-20T12:55:31;17.43;;;16.17;;
24259;SDS011;12384;48.112;18.418;2023-12-20T12:58:00;16.80;;;15.90;;
24259;SDS011;12384;48.112;18.418;2023-12-20T13:00:29;17.37;;;16.17;;
24259;SDS011;12384;48.112;18.418;2023-12-20T13:02:58;17.10;;;16.10;;
24259;SDS011;12384;48.112;18.418;2023-12-20T13:05:26;16.33;;;15.43;;
24259;SDS011;12384;48.112;18.418;2023-12-20T13:07:55;17.07;;;16.10;;
24259;SDS011;12384;48.112;18.418;2023-12-20T13:10:25;17.87;;;16.77;;
24259;SDS011;12384;48.112;18.418;2023-12-20T13:12:56;17.47;;;16.47;;
24259;SDS011;12384;48.112;18.418;2023-12-20T13:15:44;18.77;;;17.63;;
24259;SDS011;12384;48.112;18.418;2023-12-20T13:18:17;18.17;;;17.07;;
24259;SDS011;12384;48.112;18.418;2023-12-20T13:20:46;17.73;;;16.73;;
24259;SDS011;12384;48.112;18.418;2023-12-20T13:23:15;17.90;;;16.93;;
24259;SDS011;12384;48.112;18.418;2023-12-20T13:25:44;18.40;;;17.30;;
24259;SDS011;12384;48.112;18.418;2023-12-20T13:28:15;18.83;;;17.63;;
24259;SDS011;12384;48.112;18.418;2023-12-20T13:30:44;19.00;;;17.90;;
24259;SDS011;12384;48.112;18.418;2023-12-20T13:33:12;19.10;;;17.87;;
24259;SDS011;12384;48.112;18.418;2023-12-20T13:35:41;17.70;;;16.70;;
24259;SDS011;12384;48.112;18.418;2023-12-20T13:38:11;18.43;;;17.43;;
24259;SDS011;12384;48.112;18.418;2023-12-20T13:40:40;18.17;;;17.10;;
24259;SDS011;12384;48.112;18.418;2023-12-20T13:43:09;19.03;;;17.83;;
24259;SDS011;12384;48.112;18.418;2023-12-20T13:45:40;19.10;;;17.80;;
24259;SDS011;12384;48.112;18.418;2023-12-20T13:48:09;17.83;;;16.83;;
24259;SDS011;12384;48.112;18.418;2023-12-20T13:50:37;17.60;;;16.60;;
24259;SDS011;12384;48.112;18.418;2023-12-20T13:53:06;18.97;;;17.77;;
24259;SDS011;12384;48.112;18.418;2023-12-20T13:55:34;18.00;;;16.90;;
24259;SDS011;12384;48.112;18.418;2023-12-20T13:58:03;19.60;;;18.40;;
24259;SDS011;12384;48.112;18.418;2023-12-20T14:00:32;18.50;;;17.40;;
24259;SDS011;12384;48.112;18.418;2023-12-20T14:03:02;17.57;;;16.57;;
24259;SDS011;12384;48.112;18.418;2023-12-20T14:05:31;17.40;;;16.40;;
24259;SDS011;12384;48.112;18.418;2023-12-20T14:08:00;17.63;;;16.63;;
24259;SDS011;12384;48.112;18.418;2023-12-20T14:10:28;17.70;;;16.70;;
24259;SDS011;12384;48.112;18.418;2023-12-20T14:12:57;17.80;;;16.80;;
24259;SDS011;12384;48.112;18.418;2023-12-20T14:15:26;18.53;;;17.43;;
24259;SDS011;12384;48.112;18.418;2023-12-20T14:17:55;18.33;;;17.13;;
24259;SDS011;12384;48.112;18.418;2023-12-20T14:20:25;18.23;;;17.23;;
24259;SDS011;12384;48.112;18.418;2023-12-20T14:22:53;19.00;;;17.80;;